sensor_id;sensor_type;location;lat;lon;timestamp;P1;durP1;ratioP1;P2;durP2;ratioP2
9657;SDS011;4867;48.112;11.622;2023-04-09T00:01:06;14.83;;;13.33;;
9657;SDS011;4867;48.112;11.622;2023-04-09T00:03:38;14.23;;;12.73;;
9657;SDS011;4867;48.112;11.622;2023-04-09T00:06:06;14.13;;;12.83;;
9657;SDS011;4867;48.112;11.622;2023-04-09T00:08:33;14.40;;;13.00;;
9657;SDS011;4867;48.112;11.622;2023-04-09T00:11:01;15.47;;;12.37;;
9657;SDS011;4867;48.112;11.622;2023-04-09T00:13:28;14.47;;;13.07;;
9657;SDS011;4867;48.112;11.622;2023-04-09T00:15:58;14.53;;;13.10;;
9657;SDS011;4867;48.112;11.622;2023-04-09T00:18:26;15.10;;;13.60;;
9657;SDS011;4867;48.112;11.622;2023-04-09T00:20:53;15.10;;;13.70;;
9657;SDS011;4867;48.112;11.622;2023-04-09T00:23:20;14.40;;;13.00;;
9657;SDS011;4867;48.112;11.622;2023-04-09T00:25:47;14.90;;;13.40;;
9657;SDS011;4867;48.112;11.622;2023-04-09T00:28:15;15.57;;;14.07;;
9657;SDS011;4867;48.112;11.622;2023-04-09T00:30:42;15.73;;;14.03;;
9657;SDS011;4867;48.112;11.622;2023-04-09T00:33:10;15.43;;;13.80;;
9657;SDS011;4867;48.112;11.622;2023-04-09T00:35:37;15.37;;;13.77;;
9657;SDS011;4867;48.112;11.622;2023-04-09T00:38:04;18.10;;;15.33;;
9657;SDS011;4867;48.112;11.622;2023-04-09T00:40:31;23.47;;;19.07;;
9657;SDS011;4867;48.112;11.622;2023-04-09T00:42:59;21.47;;;18.40;;
9657;SDS011;4867;48.112;11.622;2023-04-09T00:45:26;21.60;;;17.77;;
9657;SDS011;4867;48.112;11.622;2023-04-09T00:47:54;21.93;;;18.63;;
9657;SDS011;4867;48.112;11.622;2023-04-09T00:50:21;21.43;;;18.60;;
9657;SDS011;4867;48.112;11.622;2023-04-09T00:52:48;18.87;;;16.97;;
9657;SDS011;4867;48.112;11.622;2023-04-09T00:55:16;17.83;;;15.93;;
9657;SDS011;4867;48.112;11.622;2023-04-09T00:57:44;15.70;;;13.97;;
9657;SDS011;4867;48.112;11.622;2023-04-09T01:00:12;18.83;;;16.17;;
9657;SDS011;4867;48.112;11.622;2023-04-09T01:02:40;21.40;;;17.17;;
9657;SDS011;4867;48.112;11.622;2023-04-09T01:05:08;17.97;;;16.07;;
9657;SDS011;4867;48.112;11.622;2023-04-09T01:07:44;18.03;;;16.13;;
9657;SDS011;4867;48.112;11.622;2023-04-09T01:15:37;16.50;;;14.43;;
9657;SDS011;4867;48.112;11.622;2023-04-09T01:18:11;15.20;;;13.70;;
9657;SDS011;4867;48.112;11.622;2023-04-09T01:21:08;15.33;;;13.70;;
9657;SDS011;4867;48.112;11.622;2023-04-09T01:23:46;16.93;;;15.23;;
9657;SDS011;4867;48.112;11.622;2023-04-09T01:29:23;14.97;;;13.47;;
9657;SDS011;4867;48.112;11.622;2023-04-09T01:31:51;15.00;;;13.50;;
9657;SDS011;4867;48.112;11.622;2023-04-09T01:34:20;13.67;;;12.27;;
9657;SDS011;4867;48.112;11.622;2023-04-09T01:36:49;13.13;;;11.83;;
9657;SDS011;4867;48.112;11.622;2023-04-09T01:39:20;13.60;;;12.00;;
9657;SDS011;4867;48.112;11.622;2023-04-09T01:41:51;13.17;;;11.87;;
9657;SDS011;4867;48.112;11.622;2023-04-09T01:44:19;13.47;;;12.07;;
9657;SDS011;4867;48.112;11.622;2023-04-09T01:46:49;13.73;;;12.33;;
9657;SDS011;4867;48.112;11.622;2023-04-09T01:49:17;12.77;;;11.50;;
9657;SDS011;4867;48.112;11.622;2023-04-09T01:51:45;13.23;;;12.03;;
9657;SDS011;4867;48.112;11.622;2023-04-09T01:54:14;14.07;;;12.77;;
9657;SDS011;4867;48.112;11.622;2023-04-09T01:56:46;13.17;;;11.83;;
9657;SDS011;4867;48.112;11.622;2023-04-09T01:59:14;13.10;;;11.80;;
9657;SDS011;4867;48.112;11.622;2023-04-09T02:01:45;14.10;;;12.70;;
9657;SDS011;4867;48.112;11.622;2023-04-09T02:04:21;14.23;;;12.80;;
9657;SDS011;4867;48.112;11.622;2023-04-09T02:07:04;18.63;;;16.57;;
9657;SDS011;4867;48.112;11.622;2023-04-09T02:09:36;14.90;;;13.47;;
9657;SDS011;4867;48.112;11.622;2023-04-09T02:12:07;13.90;;;12.60;;
9657;SDS011;4867;48.112;11.622;2023-04-09T02:14:39;13.37;;;12.07;;
9657;SDS011;4867;48.112;11.622;2023-04-09T02:17:08;13.93;;;12.60;;
9657;SDS011;4867;48.112;11.622;2023-04-09T02:19:39;13.50;;;12.13;;
9657;SDS011;4867;48.112;11.622;2023-04-09T02:22:06;14.30;;;12.80;;
9657;SDS011;4867;48.112;11.622;2023-04-09T02:24:33;14.20;;;12.90;;
9657;SDS011;4867;48.112;11.622;2023-04-09T02:27:02;14.90;;;13.47;;
9657;SDS011;4867;48.112;11.622;2023-04-09T02:29:29;14.70;;;13.30;;
9657;SDS011;4867;48.112;11.622;2023-04-09T02:31:57;15.43;;;13.83;;
9657;SDS011;4867;48.112;11.622;2023-04-09T02:34:24;15.10;;;13.60;;
9657;SDS011;4867;48.112;11.622;2023-04-09T02:36:52;14.60;;;13.07;;
9657;SDS011;4867;48.112;11.622;2023-04-09T02:39:19;14.87;;;13.47;;
9657;SDS011;4867;48.112;11.622;2023-04-09T02:41:46;15.33;;;13.73;;
9657;SDS011;4867;48.112;11.622;2023-04-09T02:44:14;14.93;;;13.43;;
9657;SDS011;4867;48.112;11.622;2023-04-09T02:46:42;14.67;;;13.13;;
9657;SDS011;4867;48.112;11.622;2023-04-09T02:49:10;15.30;;;13.70;;
9657;SDS011;4867;48.112;11.622;2023-04-09T02:51:37;13.93;;;12.53;;
9657;SDS011;4867;48.112;11.622;2023-04-09T02:54:04;13.90;;;12.60;;
9657;SDS011;4867;48.112;11.622;2023-04-09T02:56:32;14.93;;;13.40;;
9657;SDS011;4867;48.112;11.622;2023-04-09T02:59:00;14.70;;;13.20;;
9657;SDS011;4867;48.112;11.622;2023-04-09T03:01:27;16.03;;;14.43;;
9657;SDS011;4867;48.112;11.622;2023-04-09T03:03:54;14.77;;;13.37;;
9657;SDS011;4867;48.112;11.622;2023-04-09T03:06:22;15.50;;;14.00;;
9657;SDS011;4867;48.112;11.622;2023-04-09T03:08:49;15.07;;;13.67;;
9657;SDS011;4867;48.112;11.622;2023-04-09T03:11:17;15.10;;;13.50;;
9657;SDS011;4867;48.112;11.622;2023-04-09T03:13:44;15.27;;;13.47;;
9657;SDS011;4867;48.112;11.622;2023-04-09T03:16:11;15.33;;;13.83;;
9657;SDS011;4867;48.112;11.622;2023-04-09T03:18:38;16.10;;;14.50;;
9657;SDS011;4867;48.112;11.622;2023-04-09T03:21:06;16.43;;;14.73;;
9657;SDS011;4867;48.112;11.622;2023-04-09T03:23:37;17.27;;;15.40;;
9657;SDS011;4867;48.112;11.622;2023-04-09T03:26:06;15.57;;;13.93;;
9657;SDS011;4867;48.112;11.622;2023-04-09T03:28:41;15.87;;;14.17;;
9657;SDS011;4867;48.112;11.622;2023-04-09T03:31:09;17.03;;;14.93;;
9657;SDS011;4867;48.112;11.622;2023-04-09T03:33:39;16.30;;;14.67;;
9657;SDS011;4867;48.112;11.622;2023-04-09T03:36:07;17.63;;;15.63;;
9657;SDS011;4867;48.112;11.622;2023-04-09T03:38:49;16.67;;;15.07;;
9657;SDS011;4867;48.112;11.622;2023-04-09T03:41:25;17.13;;;15.33;;
9657;SDS011;4867;48.112;11.622;2023-04-09T03:43:55;17.87;;;16.07;;
9657;SDS011;4867;48.112;11.622;2023-04-09T03:46:26;16.07;;;14.37;;
9657;SDS011;4867;48.112;11.622;2023-04-09T03:48:56;18.17;;;16.23;;
9657;SDS011;4867;48.112;11.622;2023-04-09T03:51:31;16.37;;;14.73;;
9657;SDS011;4867;48.112;11.622;2023-04-09T03:53:59;18.30;;;16.40;;
9657;SDS011;4867;48.112;11.622;2023-04-09T03:56:27;17.57;;;15.77;;
9657;SDS011;4867;48.112;11.622;2023-04-09T03:58:54;19.23;;;15.77;;
9657;SDS011;4867;48.112;11.622;2023-04-09T04:01:31;17.40;;;15.60;;
9657;SDS011;4867;48.112;11.622;2023-04-09T04:03:59;18.17;;;16.00;;
9657;SDS011;4867;48.112;11.622;2023-04-09T04:06:33;17.47;;;15.67;;
9657;SDS011;4867;48.112;11.622;2023-04-09T04:09:17;17.40;;;15.50;;
9657;SDS011;4867;48.112;11.622;2023-04-09T04:11:53;18.53;;;16.57;;
9657;SDS011;4867;48.112;11.622;2023-04-09T04:14:25;19.83;;;16.70;;
9657;SDS011;4867;48.112;11.622;2023-04-09T04:16:58;17.93;;;16.03;;
9657;SDS011;4867;48.112;11.622;2023-04-09T04:19:29;16.93;;;15.00;;
9657;SDS011;4867;48.112;11.622;2023-04-09T04:21:57;18.03;;;16.10;;
9657;SDS011;4867;48.112;11.622;2023-04-09T04:24:25;17.40;;;15.60;;
9657;SDS011;4867;48.112;11.622;2023-04-09T04:26:52;16.60;;;14.80;;
9657;SDS011;4867;48.112;11.622;2023-04-09T04:29:21;15.87;;;14.27;;
9657;SDS011;4867;48.112;11.622;2023-04-09T04:31:57;20.60;;;17.13;;
9657;SDS011;4867;48.112;11.622;2023-04-09T04:34:30;18.27;;;16.37;;
9657;SDS011;4867;48.112;11.622;2023-04-09T04:37:04;17.57;;;15.77;;
9657;SDS011;4867;48.112;11.622;2023-04-09T04:39:32;17.97;;;16.07;;
9657;SDS011;4867;48.112;11.622;2023-04-09T04:42:08;19.03;;;17.03;;
9657;SDS011;4867;48.112;11.622;2023-04-09T04:44:36;20.17;;;17.87;;
9657;SDS011;4867;48.112;11.622;2023-04-09T04:47:23;18.10;;;16.30;;
9657;SDS011;4867;48.112;11.622;2023-04-09T04:49:51;20.03;;;17.87;;
9657;SDS011;4867;48.112;11.622;2023-04-09T04:52:19;19.90;;;17.50;;
9657;SDS011;4867;48.112;11.622;2023-04-09T04:54:50;17.47;;;15.40;;
9657;SDS011;4867;48.112;11.622;2023-04-09T04:57:21;17.70;;;15.90;;
9657;SDS011;4867;48.112;11.622;2023-04-09T04:59:48;18.70;;;16.80;;
9657;SDS011;4867;48.112;11.622;2023-04-09T05:02:16;18.23;;;16.33;;
9657;SDS011;4867;48.112;11.622;2023-04-09T05:05:07;17.90;;;16.10;;
9657;SDS011;4867;48.112;11.622;2023-04-09T05:07:40;18.53;;;16.43;;
9657;SDS011;4867;48.112;11.622;2023-04-09T05:10:08;19.90;;;17.80;;
9657;SDS011;4867;48.112;11.622;2023-04-09T05:12:39;19.07;;;17.00;;
9657;SDS011;4867;48.112;11.622;2023-04-09T05:15:08;17.97;;;16.07;;
9657;SDS011;4867;48.112;11.622;2023-04-09T05:17:36;18.90;;;16.97;;
9657;SDS011;4867;48.112;11.622;2023-04-09T05:20:06;17.83;;;15.93;;
9657;SDS011;4867;48.112;11.622;2023-04-09T05:22:50;18.53;;;16.53;;
9657;SDS011;4867;48.112;11.622;2023-04-09T05:25:24;17.67;;;15.80;;
9657;SDS011;4867;48.112;11.622;2023-04-09T05:27:51;16.87;;;15.17;;
9657;SDS011;4867;48.112;11.622;2023-04-09T05:30:19;18.00;;;16.10;;
9657;SDS011;4867;48.112;11.622;2023-04-09T05:32:46;18.60;;;16.70;;
9657;SDS011;4867;48.112;11.622;2023-04-09T05:35:15;18.13;;;16.33;;
9657;SDS011;4867;48.112;11.622;2023-04-09T05:37:43;16.70;;;15.00;;
9657;SDS011;4867;48.112;11.622;2023-04-09T05:40:11;16.93;;;15.23;;
9657;SDS011;4867;48.112;11.622;2023-04-09T05:42:39;16.77;;;15.13;;
9657;SDS011;4867;48.112;11.622;2023-04-09T05:45:15;21.77;;;17.90;;
9657;SDS011;4867;48.112;11.622;2023-04-09T05:47:50;20.00;;;17.33;;
9657;SDS011;4867;48.112;11.622;2023-04-09T05:50:20;18.20;;;16.03;;
9657;SDS011;4867;48.112;11.622;2023-04-09T05:52:50;19.67;;;17.57;;
9657;SDS011;4867;48.112;11.622;2023-04-09T05:55:19;19.73;;;17.73;;
9657;SDS011;4867;48.112;11.622;2023-04-09T05:57:52;22.43;;;19.20;;
9657;SDS011;4867;48.112;11.622;2023-04-09T06:00:19;20.20;;;18.00;;
9657;SDS011;4867;48.112;11.622;2023-04-09T06:02:48;21.20;;;19.00;;
9657;SDS011;4867;48.112;11.622;2023-04-09T06:05:17;21.97;;;19.57;;
9657;SDS011;4867;48.112;11.622;2023-04-09T06:07:46;22.57;;;20.27;;
9657;SDS011;4867;48.112;11.622;2023-04-09T06:10:13;22.37;;;20.10;;
9657;SDS011;4867;48.112;11.622;2023-04-09T06:12:41;21.53;;;19.37;;
9657;SDS011;4867;48.112;11.622;2023-04-09T06:15:08;20.77;;;18.67;;
9657;SDS011;4867;48.112;11.622;2023-04-09T06:17:35;21.97;;;19.77;;
9657;SDS011;4867;48.112;11.622;2023-04-09T06:20:03;20.33;;;18.37;;
9657;SDS011;4867;48.112;11.622;2023-04-09T06:22:31;21.30;;;19.20;;
9657;SDS011;4867;48.112;11.622;2023-04-09T06:24:59;21.07;;;18.97;;
9657;SDS011;4867;48.112;11.622;2023-04-09T06:27:26;20.13;;;18.13;;
9657;SDS011;4867;48.112;11.622;2023-04-09T06:29:53;21.77;;;19.57;;
9657;SDS011;4867;48.112;11.622;2023-04-09T06:32:20;20.67;;;18.67;;
9657;SDS011;4867;48.112;11.622;2023-04-09T06:34:48;19.40;;;17.50;;
9657;SDS011;4867;48.112;11.622;2023-04-09T06:37:15;18.93;;;17.13;;
9657;SDS011;4867;48.112;11.622;2023-04-09T06:39:42;18.23;;;16.43;;
9657;SDS011;4867;48.112;11.622;2023-04-09T06:42:25;16.17;;;14.67;;
9657;SDS011;4867;48.112;11.622;2023-04-09T06:45:16;15.00;;;13.60;;
9657;SDS011;4867;48.112;11.622;2023-04-09T06:47:45;16.27;;;14.77;;
9657;SDS011;4867;48.112;11.622;2023-04-09T06:50:12;14.67;;;13.37;;
9657;SDS011;4867;48.112;11.622;2023-04-09T06:52:39;13.07;;;11.87;;
9657;SDS011;4867;48.112;11.622;2023-04-09T06:55:07;12.80;;;11.60;;
9657;SDS011;4867;48.112;11.622;2023-04-09T06:57:35;11.67;;;10.57;;
9657;SDS011;4867;48.112;11.622;2023-04-09T07:00:03;11.87;;;10.77;;
9657;SDS011;4867;48.112;11.622;2023-04-09T07:02:31;12.87;;;11.67;;
9657;SDS011;4867;48.112;11.622;2023-04-09T07:04:58;12.57;;;11.37;;
9657;SDS011;4867;48.112;11.622;2023-04-09T07:07:26;13.20;;;12.00;;
9657;SDS011;4867;48.112;11.622;2023-04-09T07:09:53;14.17;;;12.83;;
9657;SDS011;4867;48.112;11.622;2023-04-09T07:12:30;13.50;;;12.30;;
9657;SDS011;4867;48.112;11.622;2023-04-09T07:14:59;12.77;;;11.63;;
9657;SDS011;4867;48.112;11.622;2023-04-09T07:17:30;12.77;;;11.57;;
9657;SDS011;4867;48.112;11.622;2023-04-09T07:19:58;12.37;;;11.17;;
9657;SDS011;4867;48.112;11.622;2023-04-09T07:22:26;12.23;;;11.10;;
9657;SDS011;4867;48.112;11.622;2023-04-09T07:24:54;11.93;;;10.83;;
9657;SDS011;4867;48.112;11.622;2023-04-09T07:27:25;11.50;;;10.33;;
9657;SDS011;4867;48.112;11.622;2023-04-09T07:29:56;11.77;;;10.77;;
9657;SDS011;4867;48.112;11.622;2023-04-09T07:32:24;11.97;;;10.87;;
9657;SDS011;4867;48.112;11.622;2023-04-09T07:34:54;11.97;;;10.87;;
9657;SDS011;4867;48.112;11.622;2023-04-09T07:37:21;11.27;;;10.27;;
9657;SDS011;4867;48.112;11.622;2023-04-09T07:39:49;12.63;;;11.53;;
9657;SDS011;4867;48.112;11.622;2023-04-09T07:42:17;12.50;;;11.40;;
9657;SDS011;4867;48.112;11.622;2023-04-09T07:44:44;12.10;;;11.00;;
9657;SDS011;4867;48.112;11.622;2023-04-09T07:47:13;10.57;;;9.67;;
9657;SDS011;4867;48.112;11.622;2023-04-09T07:49:40;10.30;;;9.40;;
9657;SDS011;4867;48.112;11.622;2023-04-09T07:52:07;10.57;;;9.67;;
9657;SDS011;4867;48.112;11.622;2023-04-09T07:54:35;10.60;;;9.70;;
9657;SDS011;4867;48.112;11.622;2023-04-09T07:57:02;11.87;;;10.77;;
9657;SDS011;4867;48.112;11.622;2023-04-09T07:59:29;10.60;;;9.70;;
9657;SDS011;4867;48.112;11.622;2023-04-09T08:01:57;10.67;;;9.60;;
9657;SDS011;4867;48.112;11.622;2023-04-09T08:04:25;9.83;;;9.03;;
9657;SDS011;4867;48.112;11.622;2023-04-09T08:06:53;10.50;;;9.60;;
9657;SDS011;4867;48.112;11.622;2023-04-09T08:09:21;10.97;;;9.97;;
9657;SDS011;4867;48.112;11.622;2023-04-09T08:11:48;10.40;;;9.50;;
9657;SDS011;4867;48.112;11.622;2023-04-09T08:14:16;11.00;;;10.10;;
9657;SDS011;4867;48.112;11.622;2023-04-09T08:16:44;10.50;;;9.60;;
9657;SDS011;4867;48.112;11.622;2023-04-09T08:19:14;10.40;;;9.50;;
9657;SDS011;4867;48.112;11.622;2023-04-09T08:21:42;9.37;;;8.57;;
9657;SDS011;4867;48.112;11.622;2023-04-09T08:24:10;9.87;;;9.03;;
9657;SDS011;4867;48.112;11.622;2023-04-09T08:26:38;9.57;;;8.77;;
9657;SDS011;4867;48.112;11.622;2023-04-09T08:29:07;9.73;;;8.93;;
9657;SDS011;4867;48.112;11.622;2023-04-09T08:31:35;10.20;;;9.30;;
9657;SDS011;4867;48.112;11.622;2023-04-09T08:34:03;9.80;;;8.93;;
9657;SDS011;4867;48.112;11.622;2023-04-09T08:36:32;9.13;;;8.33;;
9657;SDS011;4867;48.112;11.622;2023-04-09T08:39:01;9.20;;;8.40;;
9657;SDS011;4867;48.112;11.622;2023-04-09T08:41:29;9.83;;;8.93;;
9657;SDS011;4867;48.112;11.622;2023-04-09T08:43:57;9.70;;;8.90;;
9657;SDS011;4867;48.112;11.622;2023-04-09T08:46:25;9.10;;;8.30;;
9657;SDS011;4867;48.112;11.622;2023-04-09T08:48:54;10.37;;;9.47;;
9657;SDS011;4867;48.112;11.622;2023-04-09T08:51:22;9.73;;;8.93;;
9657;SDS011;4867;48.112;11.622;2023-04-09T08:53:57;10.10;;;9.30;;
9657;SDS011;4867;48.112;11.622;2023-04-09T08:56:45;10.33;;;9.43;;
9657;SDS011;4867;48.112;11.622;2023-04-09T08:59:16;10.00;;;9.10;;
9657;SDS011;4867;48.112;11.622;2023-04-09T09:01:46;10.47;;;9.57;;
9657;SDS011;4867;48.112;11.622;2023-04-09T09:04:19;12.23;;;11.13;;
9657;SDS011;4867;48.112;11.622;2023-04-09T09:06:47;12.30;;;11.20;;
9657;SDS011;4867;48.112;11.622;2023-04-09T09:09:15;13.57;;;12.37;;
9657;SDS011;4867;48.112;11.622;2023-04-09T09:11:47;12.13;;;11.03;;
9657;SDS011;4867;48.112;11.622;2023-04-09T09:14:16;13.43;;;12.23;;
9657;SDS011;4867;48.112;11.622;2023-04-09T09:21:55;15.20;;;13.80;;
9657;SDS011;4867;48.112;11.622;2023-04-09T09:24:23;16.10;;;14.70;;
9657;SDS011;4867;48.112;11.622;2023-04-09T09:26:51;14.97;;;13.67;;
9657;SDS011;4867;48.112;11.622;2023-04-09T09:29:20;14.63;;;13.33;;
9657;SDS011;4867;48.112;11.622;2023-04-09T09:31:48;14.80;;;13.47;;
9657;SDS011;4867;48.112;11.622;2023-04-09T09:34:17;14.73;;;13.30;;
9657;SDS011;4867;48.112;11.622;2023-04-09T09:36:48;14.67;;;13.27;;
9657;SDS011;4867;48.112;11.622;2023-04-09T09:39:15;15.47;;;14.13;;
9657;SDS011;4867;48.112;11.622;2023-04-09T09:41:44;14.97;;;13.63;;
9657;SDS011;4867;48.112;11.622;2023-04-09T09:44:29;14.53;;;13.23;;
9657;SDS011;4867;48.112;11.622;2023-04-09T09:46:57;12.83;;;11.63;;
9657;SDS011;4867;48.112;11.622;2023-04-09T09:49:25;13.93;;;12.63;;
9657;SDS011;4867;48.112;11.622;2023-04-09T09:51:52;12.20;;;11.10;;
9657;SDS011;4867;48.112;11.622;2023-04-09T09:54:24;12.20;;;11.10;;
9657;SDS011;4867;48.112;11.622;2023-04-09T09:56:54;11.83;;;10.83;;
9657;SDS011;4867;48.112;11.622;2023-04-09T09:59:25;12.20;;;11.10;;
9657;SDS011;4867;48.112;11.622;2023-04-09T10:01:58;14.40;;;13.00;;
9657;SDS011;4867;48.112;11.622;2023-04-09T10:04:32;12.10;;;11.03;;
9657;SDS011;4867;48.112;11.622;2023-04-09T10:07:03;12.50;;;11.40;;
9657;SDS011;4867;48.112;11.622;2023-04-09T10:09:40;13.53;;;12.33;;
9657;SDS011;4867;48.112;11.622;2023-04-09T10:12:11;12.17;;;11.13;;
9657;SDS011;4867;48.112;11.622;2023-04-09T10:14:39;12.30;;;11.20;;
9657;SDS011;4867;48.112;11.622;2023-04-09T10:17:08;13.27;;;12.17;;
9657;SDS011;4867;48.112;11.622;2023-04-09T10:19:40;13.83;;;12.63;;
9657;SDS011;4867;48.112;11.622;2023-04-09T10:22:15;12.63;;;11.53;;
9657;SDS011;4867;48.112;11.622;2023-04-09T10:24:45;13.40;;;12.20;;
9657;SDS011;4867;48.112;11.622;2023-04-09T10:27:14;13.30;;;12.00;;
9657;SDS011;4867;48.112;11.622;2023-04-09T10:29:44;11.80;;;10.80;;
9657;SDS011;4867;48.112;11.622;2023-04-09T10:32:16;12.33;;;11.33;;
9657;SDS011;4867;48.112;11.622;2023-04-09T10:34:46;14.17;;;12.97;;
9657;SDS011;4867;48.112;11.622;2023-04-09T10:37:21;14.17;;;12.97;;
9657;SDS011;4867;48.112;11.622;2023-04-09T10:39:50;13.40;;;12.30;;
9657;SDS011;4867;48.112;11.622;2023-04-09T10:42:19;14.07;;;12.87;;
9657;SDS011;4867;48.112;11.622;2023-04-09T10:45:03;14.27;;;13.03;;
9657;SDS011;4867;48.112;11.622;2023-04-09T10:47:33;14.93;;;13.70;;
9657;SDS011;4867;48.112;11.622;2023-04-09T10:50:23;13.80;;;12.60;;
9657;SDS011;4867;48.112;11.622;2023-04-09T10:52:54;13.43;;;12.20;;
9657;SDS011;4867;48.112;11.622;2023-04-09T10:55:39;14.27;;;13.07;;
9657;SDS011;4867;48.112;11.622;2023-04-09T10:58:08;15.40;;;14.00;;
9657;SDS011;4867;48.112;11.622;2023-04-09T11:00:43;14.70;;;13.40;;
9657;SDS011;4867;48.112;11.622;2023-04-09T11:03:32;27.03;;;24.20;;
9657;SDS011;4867;48.112;11.622;2023-04-09T11:06:08;17.57;;;15.97;;
9657;SDS011;4867;48.112;11.622;2023-04-09T11:08:37;16.70;;;15.20;;
9657;SDS011;4867;48.112;11.622;2023-04-09T11:11:04;16.67;;;15.07;;
9657;SDS011;4867;48.112;11.622;2023-04-09T11:13:32;15.70;;;14.30;;
9657;SDS011;4867;48.112;11.622;2023-04-09T11:16:00;17.07;;;15.57;;
9657;SDS011;4867;48.112;11.622;2023-04-09T11:18:33;16.43;;;14.93;;
9657;SDS011;4867;48.112;11.622;2023-04-09T11:21:01;16.30;;;14.70;;
9657;SDS011;4867;48.112;11.622;2023-04-09T11:23:31;17.47;;;15.87;;
9657;SDS011;4867;48.112;11.622;2023-04-09T11:25:59;16.27;;;14.70;;
9657;SDS011;4867;48.112;11.622;2023-04-09T11:28:27;15.17;;;13.77;;
9657;SDS011;4867;48.112;11.622;2023-04-09T11:30:54;16.47;;;14.97;;
9657;SDS011;4867;48.112;11.622;2023-04-09T11:33:21;16.67;;;15.17;;
9657;SDS011;4867;48.112;11.622;2023-04-09T11:35:49;16.73;;;15.23;;
9657;SDS011;4867;48.112;11.622;2023-04-09T11:38:16;15.20;;;13.70;;
9657;SDS011;4867;48.112;11.622;2023-04-09T11:40:44;15.60;;;14.03;;
9657;SDS011;4867;48.112;11.622;2023-04-09T11:43:15;15.20;;;13.80;;
9657;SDS011;4867;48.112;11.622;2023-04-09T11:45:43;14.83;;;13.53;;
9657;SDS011;4867;48.112;11.622;2023-04-09T11:48:14;14.67;;;13.27;;
9657;SDS011;4867;48.112;11.622;2023-04-09T11:50:47;15.27;;;13.87;;
9657;SDS011;4867;48.112;11.622;2023-04-09T11:53:21;14.40;;;13.00;;
9657;SDS011;4867;48.112;11.622;2023-04-09T11:55:49;14.47;;;13.17;;
9657;SDS011;4867;48.112;11.622;2023-04-09T11:58:21;14.43;;;13.13;;
9657;SDS011;4867;48.112;11.622;2023-04-09T12:00:53;14.63;;;13.27;;
9657;SDS011;4867;48.112;11.622;2023-04-09T12:03:29;14.80;;;13.50;;
9657;SDS011;4867;48.112;11.622;2023-04-09T12:06:00;15.80;;;14.40;;
9657;SDS011;4867;48.112;11.622;2023-04-09T12:08:28;15.07;;;13.67;;
9657;SDS011;4867;48.112;11.622;2023-04-09T12:11:04;13.80;;;12.60;;
9657;SDS011;4867;48.112;11.622;2023-04-09T12:13:37;14.23;;;12.93;;
9657;SDS011;4867;48.112;11.622;2023-04-09T12:16:11;13.70;;;12.50;;
9657;SDS011;4867;48.112;11.622;2023-04-09T12:18:39;15.37;;;13.97;;
9657;SDS011;4867;48.112;11.622;2023-04-09T12:21:06;14.90;;;13.57;;
9657;SDS011;4867;48.112;11.622;2023-04-09T12:23:34;15.23;;;13.83;;
9657;SDS011;4867;48.112;11.622;2023-04-09T12:26:01;14.40;;;13.10;;
9657;SDS011;4867;48.112;11.622;2023-04-09T12:28:29;15.00;;;13.70;;
9657;SDS011;4867;48.112;11.622;2023-04-09T12:30:56;14.60;;;13.30;;
9657;SDS011;4867;48.112;11.622;2023-04-09T12:33:25;16.40;;;14.90;;
9657;SDS011;4867;48.112;11.622;2023-04-09T12:35:52;16.37;;;14.90;;
9657;SDS011;4867;48.112;11.622;2023-04-09T12:38:20;15.80;;;14.30;;
9657;SDS011;4867;48.112;11.622;2023-04-09T12:40:47;15.80;;;14.30;;
9657;SDS011;4867;48.112;11.622;2023-04-09T12:43:14;16.43;;;14.83;;
9657;SDS011;4867;48.112;11.622;2023-04-09T12:45:41;15.00;;;13.60;;
9657;SDS011;4867;48.112;11.622;2023-04-09T12:48:08;15.37;;;13.97;;
9657;SDS011;4867;48.112;11.622;2023-04-09T12:50:36;15.30;;;13.90;;
9657;SDS011;4867;48.112;11.622;2023-04-09T12:53:03;14.63;;;13.33;;
9657;SDS011;4867;48.112;11.622;2023-04-09T12:55:30;16.13;;;14.33;;
9657;SDS011;4867;48.112;11.622;2023-04-09T12:57:58;15.80;;;14.40;;
9657;SDS011;4867;48.112;11.622;2023-04-09T13:00:27;16.33;;;14.83;;
9657;SDS011;4867;48.112;11.622;2023-04-09T13:02:56;15.90;;;14.47;;
9657;SDS011;4867;48.112;11.622;2023-04-09T13:05:24;16.53;;;14.97;;
9657;SDS011;4867;48.112;11.622;2023-04-09T13:07:51;15.20;;;13.80;;
9657;SDS011;4867;48.112;11.622;2023-04-09T13:10:19;15.97;;;14.37;;
9657;SDS011;4867;48.112;11.622;2023-04-09T13:12:46;15.67;;;14.27;;
9657;SDS011;4867;48.112;11.622;2023-04-09T13:15:13;15.17;;;13.77;;
9657;SDS011;4867;48.112;11.622;2023-04-09T13:17:40;15.40;;;14.00;;
9657;SDS011;4867;48.112;11.622;2023-04-09T13:20:08;14.47;;;13.27;;
9657;SDS011;4867;48.112;11.622;2023-04-09T13:22:35;15.17;;;13.80;;
9657;SDS011;4867;48.112;11.622;2023-04-09T13:25:03;15.40;;;14.00;;
9657;SDS011;4867;48.112;11.622;2023-04-09T13:27:30;15.03;;;13.63;;
9657;SDS011;4867;48.112;11.622;2023-04-09T13:29:57;15.03;;;13.63;;
9657;SDS011;4867;48.112;11.622;2023-04-09T13:32:25;15.93;;;14.43;;
9657;SDS011;4867;48.112;11.622;2023-04-09T13:34:52;16.43;;;14.83;;
9657;SDS011;4867;48.112;11.622;2023-04-09T13:37:21;15.83;;;14.37;;
9657;SDS011;4867;48.112;11.622;2023-04-09T13:39:48;15.70;;;14.13;;
9657;SDS011;4867;48.112;11.622;2023-04-09T13:42:16;15.43;;;14.03;;
9657;SDS011;4867;48.112;11.622;2023-04-09T13:44:44;15.10;;;13.63;;
9657;SDS011;4867;48.112;11.622;2023-04-09T13:47:12;14.40;;;13.00;;
9657;SDS011;4867;48.112;11.622;2023-04-09T13:49:41;14.30;;;13.00;;
9657;SDS011;4867;48.112;11.622;2023-04-09T13:52:09;14.90;;;13.60;;
9657;SDS011;4867;48.112;11.622;2023-04-09T13:54:36;14.73;;;13.43;;
9657;SDS011;4867;48.112;11.622;2023-04-09T13:57:03;13.40;;;12.20;;
9657;SDS011;4867;48.112;11.622;2023-04-09T13:59:31;13.83;;;12.63;;
9657;SDS011;4867;48.112;11.622;2023-04-09T14:01:58;14.70;;;13.40;;
9657;SDS011;4867;48.112;11.622;2023-04-09T14:04:26;13.10;;;11.90;;
9657;SDS011;4867;48.112;11.622;2023-04-09T14:06:53;13.90;;;12.53;;
9657;SDS011;4867;48.112;11.622;2023-04-09T14:09:20;12.93;;;11.73;;
9657;SDS011;4867;48.112;11.622;2023-04-09T14:11:47;12.50;;;11.40;;
9657;SDS011;4867;48.112;11.622;2023-04-09T14:14:15;11.77;;;10.77;;
9657;SDS011;4867;48.112;11.622;2023-04-09T14:16:43;12.40;;;11.30;;
9657;SDS011;4867;48.112;11.622;2023-04-09T14:19:10;12.50;;;11.40;;
9657;SDS011;4867;48.112;11.622;2023-04-09T14:21:37;10.87;;;9.87;;
9657;SDS011;4867;48.112;11.622;2023-04-09T14:24:05;10.63;;;9.73;;
9657;SDS011;4867;48.112;11.622;2023-04-09T14:26:33;11.50;;;10.50;;
9657;SDS011;4867;48.112;11.622;2023-04-09T14:29:00;11.10;;;10.10;;
9657;SDS011;4867;48.112;11.622;2023-04-09T14:31:27;11.77;;;10.70;;
9657;SDS011;4867;48.112;11.622;2023-04-09T14:33:55;12.10;;;11.03;;
9657;SDS011;4867;48.112;11.622;2023-04-09T14:36:22;12.90;;;11.77;;
9657;SDS011;4867;48.112;11.622;2023-04-09T14:38:49;12.83;;;11.57;;
9657;SDS011;4867;48.112;11.622;2023-04-09T14:41:17;12.47;;;11.37;;
9657;SDS011;4867;48.112;11.622;2023-04-09T14:43:45;12.13;;;10.97;;
9657;SDS011;4867;48.112;11.622;2023-04-09T14:46:12;11.23;;;10.23;;
9657;SDS011;4867;48.112;11.622;2023-04-09T14:48:39;10.90;;;9.90;;
9657;SDS011;4867;48.112;11.622;2023-04-09T14:51:09;10.17;;;9.27;;
9657;SDS011;4867;48.112;11.622;2023-04-09T14:53:37;10.77;;;9.77;;
9657;SDS011;4867;48.112;11.622;2023-04-09T14:56:05;10.63;;;9.73;;
9657;SDS011;4867;48.112;11.622;2023-04-09T14:58:32;10.57;;;9.67;;
9657;SDS011;4867;48.112;11.622;2023-04-09T15:00:59;10.80;;;9.80;;
9657;SDS011;4867;48.112;11.622;2023-04-09T15:03:26;10.90;;;9.90;;